Terminal Aerodrome Forecast
Issued by NWS

Current Version | Previous Version | Text Only | Print | Product List | Glossary On
Versions: 1 2 3 4 5 6 7 8 9 10 11 12 13 14 15 16 17 18 19 20 21 22 23
000
FTUS41 KGYX 221021 AAC
TAFAUG
TAF AMD
KAUG 221021Z 2210/2306 VRB03KT 3SM BR BKN002
     FM221300 27011G19KT P6SM BKN045
     FM230000 29007KT P6SM SCT050=

USA.gov is the U.S. government's official web portal to all federal, state and local government web resources and services.